Eagle Mountain, UT (84005)

11:02 AM MDT on September 27, 2016 (GMT -0600)
400 N | | Change Station

Elev 4570 ft 40.39 °N, 111.84 °W | Updated 12 seconds ago

Clear
Clear
61.9 °F
Feels Like 61.9 °F
N
2.2
Wind Variable Wind from South
Gusts 3.1 mph

Today
High -- | Low -- °F
--% Chance of Precip.
Yesterday
High -- | Low -- °F
Precip. -- in
Pressure 30.17 in
Visibility 10.0 miles
Clouds Clear
Dew Point 49 °F
Humidity 62%
Rainfall 0.00 in
Snow Depth Not available.
7:20 AM 7:15 PM
Waning Crescent, 10% visible
METAR KPVU 271656Z 09003KT 10SM CLR 17/08 A3026 RMK AO2 SLP216 T01670083
Pressure 30.17 in
Visibility 10.0 miles
Clouds Clear
Dew Point 49 °F
Humidity 62%
Rainfall 0.00 in
Snow Depth Not available.
7:20 AM 7:15 PM
Waning Crescent, 10% visible
METAR KPVU 271656Z 09003KT 10SM CLR 17/08 A3026 RMK AO2 SLP216 T01670083

10-Day Weather Forecast

Almanac

Astronomy

Sep. 27, 2016 Rise Set
Actual Time
Civil Twilight
Nautical Twilight
Astronomical Twilight
Moon
Length of Visible Light
Length of Day
Tomorrow will be .
, % of the Moon is Illuminated

Today's Extremes

State Highs State Lows

Community

WunderPhotos

Upload Photos

1,942,130 photos uploaded!

WunderBlog® & News

Nearby

Air Quality

  Air Quality AQ Index Pollutant
Not available.

Snow Depth

Station Depth Elevation

Earthquake Activity

City Distance Mag. Time & Date
Minimum magnitude displayed is 2.5.

Coastal Water Temperatures

Place Temperature

Stations

Nearby Weather Stations

Station Location Temp. Windchill Dew Point Humidity Wind Precip. Elev Updated Type
                   

Watches & Warnings

There are currently no watches in effect.